createdAt,value
2022-12-08T00:00:02.546Z,0.9
2022-12-08T00:10:10.415Z,1.0
2022-12-08T00:20:01.454Z,0.8
2022-12-08T00:30:01.262Z,0.8
2022-12-08T00:40:00.198Z,0.8
2022-12-08T00:50:03.156Z,1.0
2022-12-08T01:00:01.531Z,0.9
2022-12-08T01:10:01.492Z,1.3
2022-12-08T01:20:01.505Z,1.2
2022-12-08T01:30:00.216Z,1.3
2022-12-08T01:40:01.655Z,1.3
2022-12-08T01:50:01.741Z,1.2
2022-12-08T02:00:01.817Z,1.3
2022-12-08T02:10:01.894Z,1.5
2022-12-08T02:20:01.355Z,1.5
2022-12-08T02:30:01.385Z,1.3
2022-12-08T02:40:01.652Z,1.2
2022-12-08T02:50:03.158Z,1.1
2022-12-08T03:00:03.467Z,1.0
2022-12-08T03:10:01.278Z,1.2
2022-12-08T03:20:01.927Z,1.0
2022-12-08T03:30:01.834Z,1.1
2022-12-08T03:40:01.701Z,1.0
2022-12-08T03:50:02.299Z,1.0
2022-12-08T04:00:02.024Z,1.0
2022-12-08T04:10:02.202Z,1.1
2022-12-08T04:20:03.646Z,0.9
2022-12-08T04:30:01.700Z,0.9
2022-12-08T04:40:01.369Z,0.9
2022-12-08T04:50:00.167Z,1.0
2022-12-08T05:00:01.390Z,0.9
2022-12-08T05:10:01.498Z,1.0
2022-12-08T05:20:02.412Z,1.2
2022-12-08T05:30:02.134Z,1.3
2022-12-08T05:40:04.008Z,1.5
2022-12-08T05:50:01.906Z,1.6
2022-12-08T06:00:01.520Z,1.8
2022-12-08T06:10:01.624Z,1.7
2022-12-08T06:20:01.054Z,1.7
2022-12-08T06:30:01.398Z,1.7
2022-12-08T06:40:01.361Z,1.8
2022-12-08T06:50:01.555Z,1.9
2022-12-08T07:00:01.805Z,1.8
2022-12-08T07:10:00.974Z,1.9
2022-12-08T07:20:01.680Z,2.0
2022-12-08T07:30:01.619Z,2.1
2022-12-08T07:40:01.456Z,2.1
2022-12-08T07:50:00.179Z,2.2
2022-12-08T08:00:02.224Z,2.3
2022-12-08T08:10:01.370Z,2.5
2022-12-08T08:20:01.024Z,2.4
2022-12-08T08:30:01.581Z,2.4
2022-12-08T08:40:02.180Z,2.6
2022-12-08T08:50:00.185Z,2.6
2022-12-08T09:00:02.091Z,2.6
2022-12-08T09:10:02.278Z,2.9
2022-12-08T09:20:01.842Z,3.0
2022-12-08T09:30:01.208Z,3.1
2022-12-08T09:40:01.085Z,2.9
2022-12-08T09:50:03.181Z,3.1
2022-12-08T10:00:01.462Z,3.2
2022-12-08T10:10:01.065Z,3.3
2022-12-08T10:20:01.585Z,3.5
2022-12-08T10:30:01.317Z,3.3
2022-12-08T10:40:01.287Z,3.3
2022-12-08T10:50:01.528Z,3.5
2022-12-08T11:00:01.224Z,3.3
2022-12-08T11:10:01.283Z,3.0
2022-12-08T11:20:01.891Z,3.0
2022-12-08T11:30:06.217Z,2.9
2022-12-08T11:40:01.296Z,3.3
2022-12-08T11:50:01.497Z,3.3
2022-12-08T12:00:01.516Z,3.1
2022-12-08T12:10:01.369Z,3.0
2022-12-08T12:20:02.312Z,3.2
2022-12-08T12:30:00.170Z,2.9
2022-12-08T12:40:00.989Z,3.0
2022-12-08T12:50:00.966Z,3.1
2022-12-08T13:00:00.140Z,3.5
2022-12-08T13:10:01.518Z,3.2
2022-12-08T13:20:01.551Z,3.0
2022-12-08T13:30:01.887Z,3.1
2022-12-08T13:40:01.491Z,3.5
2022-12-08T14:00:03.796Z,3.4
2022-12-08T14:10:01.043Z,3.5
2022-12-08T14:20:01.444Z,3.4
2022-12-08T14:30:01.048Z,3.3
2022-12-08T14:40:01.103Z,3.3
2022-12-08T14:50:01.157Z,3.0
2022-12-08T15:00:00.149Z,3.1
2022-12-08T15:10:01.271Z,3.1
2022-12-08T15:20:01.528Z,3.0
2022-12-08T15:30:02.084Z,3.1
2022-12-08T15:40:01.322Z,3.0
2022-12-08T15:50:01.514Z,3.0
2022-12-08T16:00:01.817Z,2.8
2022-12-08T16:10:01.743Z,2.8
2022-12-08T16:20:01.587Z,2.8
2022-12-08T16:30:02.183Z,2.8
2022-12-08T16:40:03.547Z,2.7
2022-12-08T16:50:01.377Z,2.6
2022-12-08T17:00:00.997Z,2.5
2022-12-08T17:10:01.427Z,2.4
2022-12-08T17:20:00.154Z,2.4
2022-12-08T17:30:01.090Z,2.2
2022-12-08T17:40:00.117Z,2.1
2022-12-08T17:50:01.225Z,2.0
2022-12-08T18:00:01.046Z,2.1
2022-12-08T18:10:01.035Z,2.0
2022-12-08T18:20:00.155Z,2.0
2022-12-08T18:30:01.022Z,1.8
2022-12-08T18:40:00.139Z,1.9
2022-12-08T18:50:01.941Z,1.9
2022-12-08T19:00:01.478Z,1.8
2022-12-08T19:10:01.533Z,1.7
2022-12-08T19:20:01.420Z,1.9
2022-12-08T19:30:00.172Z,1.8
2022-12-08T19:40:00.174Z,1.7
2022-12-08T19:50:04.694Z,1.6
2022-12-08T20:00:03.754Z,1.9
2022-12-08T20:10:01.827Z,2.1
2022-12-08T20:20:03.991Z,1.8
2022-12-08T20:30:03.312Z,1.6
2022-12-08T20:40:01.440Z,1.5
2022-12-08T20:50:01.675Z,1.1
2022-12-08T21:00:01.294Z,1.3
2022-12-08T21:10:01.626Z,1.1
2022-12-08T21:20:01.400Z,1.0
2022-12-08T21:30:01.460Z,1.0
2022-12-08T21:40:01.110Z,0.9
2022-12-08T21:50:01.232Z,0.9
2022-12-08T22:00:01.058Z,1.1
2022-12-08T22:10:02.374Z,1.1
2022-12-08T22:20:01.284Z,0.8
2022-12-08T22:30:02.247Z,0.9
2022-12-08T22:40:01.223Z,0.8
2022-12-08T22:50:01.047Z,0.8
2022-12-08T23:00:01.024Z,0.4
2022-12-08T23:10:00.358Z,0.5
2022-12-08T23:20:01.049Z,1.1
2022-12-08T23:30:00.367Z,0.6
2022-12-08T23:40:01.405Z,0.3
2022-12-08T23:50:01.347Z,0.4
